Time;durP1;ratioP1;P1;durP2;ratioP2;P2;SDS_P1;SDS_P2;PMS_P1;PMS_P2;Temp;Humidity;BMP_temperature;BMP_pressure;BME280_temperature;BME280_humidity;BME280_pressure;Samples;Min_cycle;Max_cycle;Signal;HPM_P1;HPM_P2
2021/05/14 00:00:08;;;;;;;;;;;16.30;79.00;;;;;;2090788;28;759;-52
2021/05/14 00:01:27;;;;;;;;;;;16.30;79.00;;;;;;2090576;28;751;-50
2021/05/14 00:02:47;;;;;;;;;;;16.30;79.00;;;;;;2090661;28;802;-53
2021/05/14 00:04:06;;;;;;;;;;;16.30;79.00;;;;;;2090204;28;713;-51
2021/05/14 00:05:25;;;;;;;;;;;16.30;79.10;;;;;;2089420;28;1627;-50
2021/05/14 00:06:48;;;;;;;;;;;16.30;79.10;;;;;;2090315;28;1471;-52
2021/05/14 00:08:07;;;;;;;;;;;16.30;79.80;;;;;;2086863;28;1421;-49
2021/05/14 00:09:26;;;;;;;;;;;16.30;79.10;;;;;;2089118;28;1007;-52
2021/05/14 00:10:45;;;;;;;;;;;16.30;79.20;;;;;;2090552;28;723;-50
2021/05/14 00:12:04;;;;;;;;;;;16.30;79.20;;;;;;2090215;28;718;-51
2021/05/14 00:13:24;;;;;;;;;;;16.30;79.20;;;;;;2090668;28;748;-52
2021/05/14 00:14:43;;;;;;;;;;;16.30;79.30;;;;;;2089972;28;777;-51
2021/05/14 00:16:04;;;;;;;;;;;16.30;79.30;;;;;;2089679;28;1392;-51
2021/05/14 00:17:23;;;;;;;;;;;16.30;79.40;;;;;;2090323;28;723;-51
2021/05/14 00:18:42;;;;;;;;;;;16.30;79.40;;;;;;2090412;28;721;-50
2021/05/14 00:20:05;;;;;;;;;;;16.30;79.50;;;;;;2090523;28;725;-50
2021/05/14 00:21:25;;;;;;;;;;;16.30;79.40;;;;;;2082200;28;691;-49
2021/05/14 00:22:45;;;;;;;;;;;16.30;79.50;;;;;;2081603;28;718;-50
2021/05/14 00:24:05;;;;;;;;;;;16.30;79.50;;;;;;2077999;28;750;-51
2021/05/14 00:25:24;;;;;;;;;;;16.30;79.60;;;;;;2078396;28;757;-49
2021/05/14 00:26:43;;;;;;;;;;;16.30;79.60;;;;;;2078360;28;1465;-51
2021/05/14 00:28:03;;;;;;;;;;;16.20;79.50;;;;;;2078127;28;768;-50
2021/05/14 00:29:22;;;;;;;;;;;16.30;79.60;;;;;;2082057;28;731;-50
2021/05/14 00:30:41;;;;;;;;;;;16.30;79.60;;;;;;2082295;28;734;-50
2021/05/14 00:32:00;;;;;;;;;;;16.30;79.60;;;;;;2082414;28;729;-51
2021/05/14 00:33:19;;;;;;;;;;;16.20;80.30;;;;;;2082086;28;783;-50
2021/05/14 00:34:38;;;;;;;;;;;16.20;80.20;;;;;;2096337;28;1346;-51
2021/05/14 00:35:58;;;;;;;;;;;16.20;80.20;;;;;;2078514;28;2011;-50
2021/05/14 00:37:17;;;;;;;;;;;16.30;79.60;;;;;;2088850;28;887;-51
2021/05/14 00:38:36;;;;;;;;;;;16.20;79.50;;;;;;2081419;28;998;-50
2021/05/14 00:39:55;;;;;;;;;;;16.20;79.50;;;;;;2084680;28;963;-50
2021/05/14 00:41:14;;;;;;;;;;;16.20;79.50;;;;;;2073344;28;1973;-51
2021/05/14 00:42:34;;;;;;;;;;;16.20;79.60;;;;;;2082247;28;1922;-50
2021/05/14 00:43:53;;;;;;;;;;;16.20;79.60;;;;;;2089716;28;729;-51
2021/05/14 00:45:12;;;;;;;;;;;16.20;79.60;;;;;;2090047;28;750;-50
2021/05/14 00:46:31;;;;;;;;;;;16.20;79.70;;;;;;2089400;28;1419;-51
2021/05/14 00:47:51;;;;;;;;;;;16.20;79.70;;;;;;2085443;28;1609;-50
2021/05/14 00:49:10;;;;;;;;;;;16.20;79.70;;;;;;2082237;28;1063;-50
2021/05/14 00:50:29;;;;;;;;;;;16.20;79.80;;;;;;2082215;28;797;-50
2021/05/14 00:51:48;;;;;;;;;;;16.20;79.80;;;;;;2081557;28;741;-50
2021/05/14 00:53:07;;;;;;;;;;;16.20;80.50;;;;;;2081929;28;782;-50
2021/05/14 00:54:27;;;;;;;;;;;16.20;80.50;;;;;;2088920;28;1161;-51
2021/05/14 00:55:46;;;;;;;;;;;16.20;79.90;;;;;;2088859;28;759;-50
2021/05/14 00:57:05;;;;;;;;;;;16.20;79.90;;;;;;2089547;28;812;-50
2021/05/14 00:58:24;;;;;;;;;;;16.20;79.90;;;;;;2085002;28;2087;-50
2021/05/14 00:59:44;;;;;;;;;;;16.20;79.90;;;;;;2084094;28;1799;-50
2021/05/14 01:01:03;;;;;;;;;;;16.20;80.00;;;;;;2089362;28;1977;-51
2021/05/14 01:02:22;;;;;;;;;;;16.20;80.00;;;;;;2081761;28;869;-48
2021/05/14 01:03:41;;;;;;;;;;;16.20;80.00;;;;;;2081952;28;708;-50
2021/05/14 01:05:01;;;;;;;;;;;16.20;80.00;;;;;;2081898;28;725;-50
2021/05/14 01:06:20;;;;;;;;;;;16.20;80.00;;;;;;2081077;28;1430;-50
2021/05/14 01:07:39;;;;;;;;;;;16.20;80.00;;;;;;2089920;28;997;-50
2021/05/14 01:08:58;;;;;;;;;;;16.20;80.10;;;;;;2090144;28;1149;-50
2021/05/14 01:10:18;;;;;;;;;;;16.20;80.80;;;;;;2089297;28;814;-50
2021/05/14 01:11:37;;;;;;;;;;;16.20;80.10;;;;;;2089407;28;1539;-50
2021/05/14 01:12:56;;;;;;;;;;;16.20;80.90;;;;;;2082029;28;783;-50
2021/05/14 01:14:15;;;;;;;;;;;16.20;80.90;;;;;;2088482;28;1296;-50
2021/05/14 01:15:34;;;;;;;;;;;16.20;80.20;;;;;;2094841;28;737;-50
2021/05/14 01:16:53;;;;;;;;;;;16.20;80.10;;;;;;2080408;28;1925;-50
2021/05/14 01:18:13;;;;;;;;;;;16.20;80.10;;;;;;2077843;28;1002;-51
2021/05/14 01:19:32;;;;;;;;;;;16.20;80.10;;;;;;2078023;28;798;-50
2021/05/14 01:20:51;;;;;;;;;;;16.10;80.10;;;;;;2081394;28;1914;-50
2021/05/14 01:22:11;;;;;;;;;;;16.20;80.20;;;;;;2081165;28;737;-50
2021/05/14 01:23:30;;;;;;;;;;;16.20;80.20;;;;;;2081755;28;750;-50
2021/05/14 01:24:49;;;;;;;;;;;16.20;80.20;;;;;;2072522;28;757;-50
2021/05/14 01:26:10;;;;;;;;;;;16.20;80.30;;;;;;2081129;28;1977;-49
2021/05/14 01:27:29;;;;;;;;;;;16.20;80.30;;;;;;2097926;28;733;-50
2021/05/14 01:28:48;;;;;;;;;;;16.20;80.30;;;;;;2093006;28;822;-49
2021/05/14 01:30:07;;;;;;;;;;;16.20;80.40;;;;;;2089622;28;1903;-50
2021/05/14 01:31:27;;;;;;;;;;;16.20;81.20;;;;;;2089462;28;1510;-50
2021/05/14 01:32:46;;;;;;;;;;;16.20;80.50;;;;;;2080828;28;734;-51
2021/05/14 01:34:07;;;;;;;;;;;16.10;80.40;;;;;;2084611;28;2066;-51
2021/05/14 01:35:26;;;;;;;;;;;16.10;80.50;;;;;;2088376;28;1126;-50
2021/05/14 01:36:45;;;;;;;;;;;16.10;80.50;;;;;;2080739;28;1379;-51
2021/05/14 01:38:04;;;;;;;;;;;16.10;80.60;;;;;;2088379;28;973;-50
2021/05/14 01:39:24;;;;;;;;;;;16.10;80.60;;;;;;2089985;28;1060;-52
2021/05/14 01:40:43;;;;;;;;;;;16.10;80.70;;;;;;2089698;28;1910;-51
2021/05/14 01:42:03;;;;;;;;;;;16.10;80.70;;;;;;2088499;28;1608;-50
2021/05/14 01:43:22;;;;;;;;;;;16.10;80.70;;;;;;2086047;28;748;-50
2021/05/14 01:44:41;;;;;;;;;;;16.10;81.40;;;;;;2087670;28;1904;-49
2021/05/14 01:46:03;;;;;;;;;;;16.10;81.50;;;;;;2089473;28;1354;-50
2021/05/14 01:47:23;;;;;;;;;;;16.10;81.50;;;;;;2096978;28;726;-49
2021/05/14 01:48:42;;;;;;;;;;;16.10;80.70;;;;;;2092735;28;725;-50
2021/05/14 01:50:02;;;;;;;;;;;16.10;81.50;;;;;;2089292;28;782;-50
2021/05/14 01:51:21;;;;;;;;;;;16.10;80.70;;;;;;2079353;28;1617;-49
2021/05/14 01:52:40;;;;;;;;;;;16.10;80.80;;;;;;2081578;28;941;-49
2021/05/14 01:53:59;;;;;;;;;;;16.10;80.70;;;;;;2081827;28;1587;-50
2021/05/14 01:55:18;;;;;;;;;;;16.10;80.80;;;;;;2089999;28;788;-51
2021/05/14 01:56:38;;;;;;;;;;;16.10;80.80;;;;;;2082333;28;1650;-50
2021/05/14 01:57:57;;;;;;;;;;;16.10;80.70;;;;;;2081579;28;716;-50
2021/05/14 01:59:16;;;;;;;;;;;16.10;80.70;;;;;;2081096;28;726;-51
2021/05/14 02:00:35;;;;;;;;;;;16.10;81.50;;;;;;2080957;28;1910;-49
2021/05/14 02:01:54;;;;;;;;;;;16.10;81.50;;;;;;2080475;28;1893;-52
2021/05/14 02:03:13;;;;;;;;;;;16.00;80.70;;;;;;2089679;28;1078;-50
2021/05/14 02:04:33;;;;;;;;;;;16.10;80.80;;;;;;2088897;28;1591;-59
2021/05/14 02:05:52;;;;;;;;;;;16.10;80.80;;;;;;2089052;28;1373;-50
2021/05/14 02:07:11;;;;;;;;;;;16.10;80.90;;;;;;2085596;28;960;-52
2021/05/14 02:08:31;;;;;;;;;;;16.10;80.90;;;;;;2089066;28;1083;-52
2021/05/14 02:09:52;;;;;;;;;;;16.00;80.90;;;;;;2081152;28;1749;-51
2021/05/14 02:11:11;;;;;;;;;;;16.10;81.80;;;;;;2086033;28;756;-50
2021/05/14 02:12:30;;;;;;;;;;;16.10;81.10;;;;;;2086246;28;716;-51
2021/05/14 02:13:49;;;;;;;;;;;16.10;81.10;;;;;;2089494;28;722;-53
2021/05/14 02:15:09;;;;;;;;;;;16.00;81.10;;;;;;2081606;28;748;-50
2021/05/14 02:16:28;;;;;;;;;;;16.00;81.10;;;;;;2072422;28;1579;-50
2021/05/14 02:17:47;;;;;;;;;;;16.10;81.90;;;;;;2077928;28;1840;-50
2021/05/14 02:19:07;;;;;;;;;;;16.10;81.20;;;;;;2081507;28;726;-50
2021/05/14 02:20:26;;;;;;;;;;;16.10;81.20;;;;;;2086518;28;1966;-50
2021/05/14 02:21:45;;;;;;;;;;;16.10;81.30;;;;;;2095956;28;1624;-50
2021/05/14 02:23:05;;;;;;;;;;;16.10;81.30;;;;;;2088573;28;1316;-53
2021/05/14 02:24:24;;;;;;;;;;;16.00;81.20;;;;;;2088603;28;1390;-49
2021/05/14 02:25:43;;;;;;;;;;;16.00;81.10;;;;;;2086007;28;1231;-50
2021/05/14 02:27:03;;;;;;;;;;;16.10;81.50;;;;;;2093450;28;1362;-51
2021/05/14 02:28:23;;;;;;;;;;;16.00;81.20;;;;;;2093650;28;1120;-50
2021/05/14 02:29:42;;;;;;;;;;;16.00;81.20;;;;;;2088391;28;1310;-49
2021/05/14 02:31:01;;;;;;;;;;;16.00;81.20;;;;;;2090908;28;1379;-51
2021/05/14 02:32:22;;;;;;;;;;;16.00;81.30;;;;;;2090395;28;1426;-50
2021/05/14 02:33:41;;;;;;;;;;;16.00;81.30;;;;;;2088928;28;1319;-49
2021/05/14 02:35:01;;;;;;;;;;;16.00;81.20;;;;;;2090994;28;1719;-50
2021/05/14 02:36:20;;;;;;;;;;;16.00;81.20;;;;;;2090710;28;1615;-50
2021/05/14 02:37:40;;;;;;;;;;;16.00;81.20;;;;;;2088137;28;1318;-51
2021/05/14 02:38:58;;;;;;;;;;;16.00;81.20;;;;;;2089757;28;1404;-49
2021/05/14 02:40:18;;;;;;;;;;;16.00;81.20;;;;;;2095664;28;1246;-50
2021/05/14 02:41:37;;;;;;;;;;;16.00;81.30;;;;;;2087436;28;1227;-50
2021/05/14 02:42:56;;;;;;;;;;;16.00;81.30;;;;;;2082520;28;1290;-50
2021/05/14 02:44:15;;;;;;;;;;;16.00;81.40;;;;;;2086555;28;1426;-50
2021/05/14 02:45:34;;;;;;;;;;;16.00;81.50;;;;;;2096196;28;1340;-50
2021/05/14 02:46:53;;;;;;;;;;;16.00;81.50;;;;;;2090441;28;1504;-50
2021/05/14 02:48:16;;;;;;;;;;;16.00;81.50;;;;;;2091863;28;1477;-52
2021/05/14 02:49:36;;;;;;;;;;;16.00;81.60;;;;;;2088480;28;1346;-53
2021/05/14 02:50:55;;;;;;;;;;;16.00;81.80;;;;;;2088949;28;1221;-49
2021/05/14 02:52:14;;;;;;;;;;;16.00;81.70;;;;;;2090614;28;1495;-50
2021/05/14 02:53:33;;;;;;;;;;;16.00;81.70;;;;;;2095211;28;1278;-51
2021/05/14 02:54:53;;;;;;;;;;;16.00;81.70;;;;;;2082196;28;1212;-50
2021/05/14 02:56:12;;;;;;;;;;;16.00;81.80;;;;;;2090584;28;1513;-50
2021/05/14 02:57:31;;;;;;;;;;;16.00;81.80;;;;;;2089022;28;1181;-50
2021/05/14 02:58:50;;;;;;;;;;;16.00;81.80;;;;;;2088125;28;1222;-50
2021/05/14 03:00:10;;;;;;;;;;;16.00;81.80;;;;;;2092562;28;1219;-49
2021/05/14 03:01:29;;;;;;;;;;;16.00;81.90;;;;;;2086731;28;1384;-50
2021/05/14 03:02:48;;;;;;;;;;;16.00;81.90;;;;;;2088785;28;1639;-49
2021/05/14 03:04:07;;;;;;;;;;;16.00;82.60;;;;;;2090320;28;1553;-51
2021/05/14 03:05:26;;;;;;;;;;;16.00;81.90;;;;;;2088709;28;1154;-49
2021/05/14 03:06:46;;;;;;;;;;;16.00;82.00;;;;;;2088764;28;1463;-49
2021/05/14 03:08:05;;;;;;;;;;;16.00;81.90;;;;;;2092357;28;1310;-50
2021/05/14 03:09:25;;;;;;;;;;;16.00;81.80;;;;;;2092799;28;1162;-49
2021/05/14 03:10:44;;;;;;;;;;;16.00;81.80;;;;;;2095890;28;1432;-50
2021/05/14 03:12:03;;;;;;;;;;;15.90;81.60;;;;;;2092454;28;1595;-50
2021/05/14 03:13:22;;;;;;;;;;;16.00;81.70;;;;;;2092175;28;1430;-49
2021/05/14 03:14:42;;;;;;;;;;;16.00;81.70;;;;;;2093258;28;1333;-50
2021/05/14 03:16:01;;;;;;;;;;;16.00;81.70;;;;;;2094402;28;1510;-50
2021/05/14 03:17:20;;;;;;;;;;;16.00;81.80;;;;;;2092871;28;1346;-50
2021/05/14 03:18:39;;;;;;;;;;;16.00;81.90;;;;;;2089669;28;1331;-50
2021/05/14 03:19:58;;;;;;;;;;;16.00;82.00;;;;;;2087288;28;1556;-51
2021/05/14 03:21:18;;;;;;;;;;;15.90;82.70;;;;;;2089335;28;1906;-50
2021/05/14 03:22:37;;;;;;;;;;;16.00;82.90;;;;;;2089889;28;1239;-53
2021/05/14 03:23:56;;;;;;;;;;;16.00;82.30;;;;;;2091537;28;1171;-54
2021/05/14 03:25:16;;;;;;;;;;;16.00;82.30;;;;;;2095162;28;1032;-50
2021/05/14 03:26:35;;;;;;;;;;;15.90;82.30;;;;;;2090043;28;1496;-50
2021/05/14 03:27:54;;;;;;;;;;;15.90;82.30;;;;;;2086408;28;1022;-50
2021/05/14 03:29:14;;;;;;;;;;;15.90;82.40;;;;;;2090637;28;1348;-53
2021/05/14 03:30:33;;;;;;;;;;;15.90;82.50;;;;;;2091083;28;1511;-50
2021/05/14 03:31:53;;;;;;;;;;;15.90;82.60;;;;;;2086836;28;1459;-50
2021/05/14 03:33:19;;;;;;;;;;;16.00;82.80;;;;;;2086026;28;1305;-50
2021/05/14 03:34:38;;;;;;;;;;;15.90;82.70;;;;;;2086770;28;1229;-50
2021/05/14 03:35:57;;;;;;;;;;;15.90;82.80;;;;;;2088914;28;1437;-50
2021/05/14 03:37:17;;;;;;;;;;;15.90;82.90;;;;;;2094675;28;1276;-50
2021/05/14 03:38:36;;;;;;;;;;;15.90;82.90;;;;;;2097282;28;1433;-51
2021/05/14 03:39:57;;;;;;;;;;;16.00;84.40;;;;;;2091546;28;1445;-50
2021/05/14 03:41:29;;;;;;;;;;;15.90;91.20;;;;;;2094808;28;1933;-50
2021/05/14 03:42:49;;;;;;;;;;;15.90;97.30;;;;;;2096577;28;1766;-50
2021/05/14 03:44:08;;;;;;;;;;;15.90;98.10;;;;;;2093630;28;1223;-50
2021/05/14 03:49:59;;;;;;;;;;;15.80;99.40;;;;;;2084526;28;1094;-50
2021/05/14 03:51:18;;;;;;;;;;;15.80;98.40;;;;;;2092397;28;1307;-50
2021/05/14 03:52:38;;;;;;;;;;;15.80;97.70;;;;;;2092628;28;1317;-50
2021/05/14 03:53:57;;;;;;;;;;;15.80;97.10;;;;;;2089889;28;1205;-50
2021/05/14 03:55:17;;;;;;;;;;;15.80;96.80;;;;;;2081011;28;1465;-53
2021/05/14 03:56:36;;;;;;;;;;;15.90;96.90;;;;;;2092732;28;1527;-51
2021/05/14 03:57:55;;;;;;;;;;;15.90;96.70;;;;;;2089190;28;1351;-50
2021/05/14 03:59:15;;;;;;;;;;;15.90;96.60;;;;;;2089455;28;1527;-50
2021/05/14 04:00:34;;;;;;;;;;;15.90;96.30;;;;;;2089704;28;1967;-50
2021/05/14 04:01:53;;;;;;;;;;;15.90;95.90;;;;;;2091430;28;1196;-50
2021/05/14 04:03:15;;;;;;;;;;;15.90;95.70;;;;;;2089818;28;2069;-51
2021/05/14 04:04:34;;;;;;;;;;;15.90;95.50;;;;;;2089142;28;1173;-50
2021/05/14 04:05:53;;;;;;;;;;;15.90;95.00;;;;;;2088721;28;1175;-50
2021/05/14 04:07:13;;;;;;;;;;;15.90;94.80;;;;;;2094159;28;1432;-50
2021/05/14 04:08:32;;;;;;;;;;;15.90;94.80;;;;;;2090199;28;1272;-50
2021/05/14 04:10:14;;;;;;;;;;;15.90;94.60;;;;;;2093004;28;1280;-50
2021/05/14 04:14:31;;;;;;;;;;;15.90;94.40;;;;;;2089133;28;1202;-50
2021/05/14 04:15:52;;;;;;;;;;;15.90;94.40;;;;;;2085699;28;1239;-50
2021/05/14 04:17:11;;;;;;;;;;;15.90;94.40;;;;;;2077312;28;1322;-52
2021/05/14 04:18:31;;;;;;;;;;;15.90;94.40;;;;;;2090508;28;1125;-50
2021/05/14 04:19:50;;;;;;;;;;;15.90;94.30;;;;;;2089781;28;1069;-50
2021/05/14 04:21:09;;;;;;;;;;;15.80;94.20;;;;;;2088903;28;1906;-51
2021/05/14 04:22:29;;;;;;;;;;;15.90;94.20;;;;;;2087957;28;1338;-51
2021/05/14 04:23:48;;;;;;;;;;;15.90;94.10;;;;;;2089454;28;1348;-50
2021/05/14 04:25:08;;;;;;;;;;;15.80;94.30;;;;;;2091806;28;1344;-51
2021/05/14 04:26:27;;;;;;;;;;;15.80;93.90;;;;;;2095659;28;1507;-49
2021/05/14 04:27:47;;;;;;;;;;;15.80;93.90;;;;;;2090360;28;1191;-50
2021/05/14 04:29:06;;;;;;;;;;;15.80;93.80;;;;;;2093086;28;1236;-50
2021/05/14 04:30:25;;;;;;;;;;;15.90;93.70;;;;;;2085647;28;1374;-52
2021/05/14 04:31:45;;;;;;;;;;;15.80;93.70;;;;;;2095389;28;1700;-52
2021/05/14 04:33:05;;;;;;;;;;;15.80;94.10;;;;;;2090572;28;1354;-52
2021/05/14 04:34:25;;;;;;;;;;;15.80;97.00;;;;;;2087087;28;1220;-53
2021/05/14 04:35:44;;;;;;;;;;;15.80;98.40;;;;;;2093987;28;1391;-50
2021/05/14 04:37:03;;;;;;;;;;;15.80;99.90;;;;;;2088985;28;1423;-50
2021/05/14 04:38:23;;;;;;;;;;;15.80;98.90;;;;;;2090840;28;1417;-51
2021/05/14 04:39:42;;;;;;;;;;;15.80;98.40;;;;;;2090573;28;1338;-51
2021/05/14 04:41:01;;;;;;;;;;;15.80;97.30;;;;;;2090127;28;1968;-51
2021/05/14 04:42:20;;;;;;;;;;;15.80;97.00;;;;;;2089859;28;1297;-54
2021/05/14 04:43:40;;;;;;;;;;;15.80;96.70;;;;;;2087651;28;1225;-52
2021/05/14 04:44:59;;;;;;;;;;;15.80;96.50;;;;;;2084292;28;1430;-50
2021/05/14 04:46:18;;;;;;;;;;;15.80;96.30;;;;;;2092105;28;1530;-49
2021/05/14 04:47:38;;;;;;;;;;;15.80;96.10;;;;;;2088573;28;1276;-49
2021/05/14 04:48:57;;;;;;;;;;;15.80;95.80;;;;;;2094854;28;1302;-51
2021/05/14 04:50:18;;;;;;;;;;;15.80;95.80;;;;;;2093419;28;1491;-50
2021/05/14 04:51:37;;;;;;;;;;;15.80;95.80;;;;;;2088286;28;1243;-50
2021/05/14 04:53:04;;;;;;;;;;;15.80;95.90;;;;;;2091285;28;1679;-55
2021/05/14 04:54:24;;;;;;;;;;;15.80;95.80;;;;;;2082555;28;1434;-51
2021/05/14 04:55:43;;;;;;;;;;;15.80;95.70;;;;;;2089613;28;1333;-53
2021/05/14 04:57:02;;;;;;;;;;;15.80;95.80;;;;;;2086958;28;1145;-51
2021/05/14 04:58:21;;;;;;;;;;;15.80;95.70;;;;;;2087783;28;1320;-49
2021/05/14 04:59:41;;;;;;;;;;;15.80;95.60;;;;;;2089708;28;1266;-50
2021/05/14 05:01:00;;;;;;;;;;;15.80;95.40;;;;;;2093121;28;1906;-49
2021/05/14 05:02:19;;;;;;;;;;;15.80;95.50;;;;;;2080154;28;1495;-50
2021/05/14 05:03:39;;;;;;;;;;;15.80;95.70;;;;;;2088596;28;1217;-50
2021/05/14 05:04:58;;;;;;;;;;;15.80;96.00;;;;;;2090070;28;1613;-52
2021/05/14 05:06:18;;;;;;;;;;;15.80;96.00;;;;;;2086906;28;1433;-50
2021/05/14 05:07:37;;;;;;;;;;;15.80;99.90;;;;;;2095218;28;1262;-50
2021/05/14 05:08:56;;;;;;;;;;;15.80;99.90;;;;;;2089988;28;1362;-49
2021/05/14 05:10:16;;;;;;;;;;;15.80;99.90;;;;;;2091250;28;1245;-51
2021/05/14 05:11:35;;;;;;;;;;;15.70;99.90;;;;;;2089800;28;1364;-49
2021/05/14 05:12:54;;;;;;;;;;;15.70;99.90;;;;;;2089651;28;1571;-50
2021/05/14 05:14:13;;;;;;;;;;;15.70;99.90;;;;;;2092319;28;1332;-49
2021/05/14 05:15:32;;;;;;;;;;;15.70;99.20;;;;;;2090243;28;1211;-50
2021/05/14 05:16:52;;;;;;;;;;;15.80;98.80;;;;;;2090164;28;1356;-51
2021/05/14 05:18:11;;;;;;;;;;;15.70;98.30;;;;;;2092452;28;1320;-49
2021/05/14 05:19:30;;;;;;;;;;;15.80;98.30;;;;;;2095037;28;1725;-51
2021/05/14 05:20:49;;;;;;;;;;;15.80;98.10;;;;;;2089956;28;1906;-50
2021/05/14 05:22:08;;;;;;;;;;;15.80;98.30;;;;;;2089377;28;1584;-52
2021/05/14 05:23:27;;;;;;;;;;;15.80;98.70;;;;;;2095065;28;1277;-52
2021/05/14 05:24:46;;;;;;;;;;;15.80;98.30;;;;;;2088255;28;1390;-52
2021/05/14 05:26:06;;;;;;;;;;;15.80;98.40;;;;;;2093365;28;1478;-50
2021/05/14 05:27:25;;;;;;;;;;;15.80;98.40;;;;;;2093880;28;1175;-49
2021/05/14 05:28:44;;;;;;;;;;;15.80;98.50;;;;;;2096340;28;1140;-57
2021/05/14 05:30:04;;;;;;;;;;;15.80;98.40;;;;;;2092838;28;1261;-51
2021/05/14 05:31:23;;;;;;;;;;;15.80;98.60;;;;;;2089893;28;1216;-49
2021/05/14 05:32:43;;;;;;;;;;;15.80;98.60;;;;;;2088875;28;1687;-53
2021/05/14 05:34:02;;;;;;;;;;;15.80;98.60;;;;;;2092969;28;1363;-50
2021/05/14 05:35:21;;;;;;;;;;;15.80;98.50;;;;;;2094557;28;1238;-50
2021/05/14 05:36:41;;;;;;;;;;;15.80;98.50;;;;;;2079252;28;1541;-50
2021/05/14 05:38:00;;;;;;;;;;;15.80;98.40;;;;;;2082500;28;1223;-52
2021/05/14 05:39:19;;;;;;;;;;;15.80;98.30;;;;;;2089006;28;1129;-54
2021/05/14 05:40:38;;;;;;;;;;;15.80;98.50;;;;;;2092417;28;1971;-51
2021/05/14 05:41:58;;;;;;;;;;;15.80;97.90;;;;;;2089184;28;1236;-51
2021/05/14 05:43:17;;;;;;;;;;;15.80;99.40;;;;;;2076646;28;1296;-51
2021/05/14 05:44:37;;;;;;;;;;;15.70;99.90;;;;;;2087155;28;1148;-51
2021/05/14 05:45:56;;;;;;;;;;;15.70;99.90;;;;;;2093701;28;2001;-52
2021/05/14 05:47:15;;;;;;;;;;;15.80;99.90;;;;;;2090699;28;1307;-53
2021/05/14 05:48:34;;;;;;;;;;;15.70;99.90;;;;;;2089386;28;1145;-54
2021/05/14 05:49:54;;;;;;;;;;;15.70;99.90;;;;;;2094940;28;1185;-50
2021/05/14 05:51:14;;;;;;;;;;;15.70;99.50;;;;;;2090189;28;1241;-52
2021/05/14 05:52:32;;;;;;;;;;;15.70;99.20;;;;;;2084095;28;1709;-50
2021/05/14 05:53:52;;;;;;;;;;;15.70;99.00;;;;;;2083933;28;1247;-49
2021/05/14 05:55:11;;;;;;;;;;;15.70;98.80;;;;;;2088712;28;1570;-49
2021/05/14 05:56:30;;;;;;;;;;;15.80;99.00;;;;;;2093609;28;1395;-50
2021/05/14 05:57:49;;;;;;;;;;;15.80;98.70;;;;;;2089016;28;1298;-52
2021/05/14 05:59:12;;;;;;;;;;;15.80;98.60;;;;;;2082554;28;1206;-50
2021/05/14 06:00:31;;;;;;;;;;;15.80;98.60;;;;;;2078061;28;1294;-53
2021/05/14 06:01:50;;;;;;;;;;;15.80;98.70;;;;;;2081826;28;1516;-52
2021/05/14 06:03:10;;;;;;;;;;;15.80;98.70;;;;;;2076077;28;1181;-55
2021/05/14 06:04:30;;;;;;;;;;;15.80;98.80;;;;;;2078067;28;1459;-51
2021/05/14 06:05:49;;;;;;;;;;;15.80;98.90;;;;;;2078024;28;1232;-51
2021/05/14 06:07:08;;;;;;;;;;;15.80;98.70;;;;;;2070686;28;1375;-50
2021/05/14 06:08:28;;;;;;;;;;;15.80;98.70;;;;;;2078221;28;1346;-51
2021/05/14 06:09:47;;;;;;;;;;;15.80;99.00;;;;;;2081986;28;1589;-54
2021/05/14 06:11:06;;;;;;;;;;;15.80;98.60;;;;;;2080666;28;1655;-53
2021/05/14 06:12:25;;;;;;;;;;;15.80;98.60;;;;;;2082936;28;1460;-53
2021/05/14 06:13:44;;;;;;;;;;;15.80;98.50;;;;;;2071594;28;1340;-53
2021/05/14 06:15:04;;;;;;;;;;;15.80;98.40;;;;;;2078312;28;1358;-54
2021/05/14 06:16:24;;;;;;;;;;;15.80;98.10;;;;;;2081736;28;1762;-51
2021/05/14 06:17:43;;;;;;;;;;;15.80;98.20;;;;;;2081127;28;1101;-51
2021/05/14 06:19:08;;;;;;;;;;;15.80;98.10;;;;;;2082446;28;1205;-52
2021/05/14 06:20:29;;;;;;;;;;;15.80;98.10;;;;;;2079813;28;1442;-49
2021/05/14 06:21:49;;;;;;;;;;;15.80;98.30;;;;;;2082684;28;1429;-53
2021/05/14 06:23:09;;;;;;;;;;;15.80;97.90;;;;;;2080875;28;1391;-54
2021/05/14 06:24:28;;;;;;;;;;;15.80;97.80;;;;;;2081121;28;1351;-53
2021/05/14 06:25:48;;;;;;;;;;;15.80;97.70;;;;;;2079531;28;1473;-51
2021/05/14 06:27:07;;;;;;;;;;;15.80;97.70;;;;;;2082405;28;1466;-52
2021/05/14 06:28:27;;;;;;;;;;;15.80;97.60;;;;;;2079765;28;1278;-50
2021/05/14 06:29:46;;;;;;;;;;;15.80;97.50;;;;;;2083317;28;1395;-52
2021/05/14 06:31:05;;;;;;;;;;;15.80;97.30;;;;;;2080530;28;1265;-50
2021/05/14 06:32:24;;;;;;;;;;;15.80;97.20;;;;;;2080057;28;1223;-56
2021/05/14 06:33:43;;;;;;;;;;;15.80;97.30;;;;;;2082806;28;1471;-51
2021/05/14 06:35:03;;;;;;;;;;;15.80;97.10;;;;;;2074767;28;1345;-52
2021/05/14 06:36:22;;;;;;;;;;;15.80;97.10;;;;;;2081278;28;1443;-54
2021/05/14 06:37:43;;;;;;;;;;;15.80;97.10;;;;;;2076600;28;1223;-54
2021/05/14 06:39:02;;;;;;;;;;;15.90;96.80;;;;;;2083449;28;1363;-51
2021/05/14 06:40:21;;;;;;;;;;;15.90;96.80;;;;;;2080746;28;1429;-51
2021/05/14 06:41:40;;;;;;;;;;;15.90;96.80;;;;;;2081991;28;1175;-51
2021/05/14 06:43:00;;;;;;;;;;;15.90;96.60;;;;;;2081546;28;1198;-54
2021/05/14 06:44:19;;;;;;;;;;;15.90;96.50;;;;;;2076577;28;1012;-51
2021/05/14 06:45:39;;;;;;;;;;;15.90;96.40;;;;;;2080634;28;1312;-51
2021/05/14 06:46:58;;;;;;;;;;;15.90;96.40;;;;;;2076499;28;1150;-53
2021/05/14 06:48:17;;;;;;;;;;;15.80;96.20;;;;;;2080640;28;1160;-51
2021/05/14 06:49:36;;;;;;;;;;;15.90;96.20;;;;;;2091263;28;1332;-51
2021/05/14 06:50:56;;;;;;;;;;;15.90;96.30;;;;;;2088988;28;1220;-51
2021/05/14 06:52:15;;;;;;;;;;;15.80;96.60;;;;;;2091028;28;1423;-50
2021/05/14 06:53:34;;;;;;;;;;;15.80;96.20;;;;;;2094179;28;1218;-51
2021/05/14 06:54:53;;;;;;;;;;;15.80;96.10;;;;;;2087188;28;1201;-50
2021/05/14 06:56:12;;;;;;;;;;;15.80;96.00;;;;;;2091998;28;1488;-50
2021/05/14 06:57:32;;;;;;;;;;;15.80;96.00;;;;;;2093780;28;1220;-50
2021/05/14 06:58:54;;;;;;;;;;;15.80;96.00;;;;;;2087660;28;1262;-51
2021/05/14 07:00:13;;;;;;;;;;;15.80;96.00;;;;;;2086497;28;1335;-50
2021/05/14 07:01:32;;;;;;;;;;;15.80;95.90;;;;;;2093229;28;1979;-49
2021/05/14 07:02:52;;;;;;;;;;;15.80;95.80;;;;;;2087512;28;1544;-50
2021/05/14 07:04:11;;;;;;;;;;;15.80;96.00;;;;;;2092164;28;1168;-47
2021/05/14 07:05:30;;;;;;;;;;;15.90;96.10;;;;;;2089084;28;1237;-54
2021/05/14 07:06:49;;;;;;;;;;;15.90;96.50;;;;;;2091682;28;1356;-49
2021/05/14 07:08:09;;;;;;;;;;;15.90;98.80;;;;;;2089403;28;1309;-50
2021/05/14 07:09:28;;;;;;;;;;;15.80;99.90;;;;;;2086090;28;1503;-52
2021/05/14 07:10:48;;;;;;;;;;;15.80;99.90;;;;;;2088237;28;1266;-48
2021/05/14 07:12:07;;;;;;;;;;;15.80;99.90;;;;;;2092418;28;1327;-54
2021/05/14 07:13:26;;;;;;;;;;;15.80;99.90;;;;;;2095408;28;1290;-50
2021/05/14 07:14:45;;;;;;;;;;;15.80;99.90;;;;;;2096104;28;1602;-52
2021/05/14 07:16:05;;;;;;;;;;;15.80;99.90;;;;;;2090716;28;1431;-52
2021/05/14 07:17:24;;;;;;;;;;;15.80;99.90;;;;;;2089267;28;1352;-51
2021/05/14 07:18:43;;;;;;;;;;;15.80;99.60;;;;;;2091615;28;1231;-50
2021/05/14 07:20:03;;;;;;;;;;;15.80;99.90;;;;;;2090676;28;1015;-55
2021/05/14 07:21:22;;;;;;;;;;;15.80;99.80;;;;;;2091897;28;1902;-53
2021/05/14 07:22:41;;;;;;;;;;;15.80;99.50;;;;;;2085379;28;1430;-53
2021/05/14 07:24:00;;;;;;;;;;;15.80;99.80;;;;;;2085855;28;1201;-51
2021/05/14 07:25:20;;;;;;;;;;;15.80;99.80;;;;;;2092255;28;1433;-49
2021/05/14 07:26:39;;;;;;;;;;;15.80;99.20;;;;;;2096616;28;1379;-50
2021/05/14 07:27:59;;;;;;;;;;;15.80;99.20;;;;;;2088822;28;1208;-51
2021/05/14 07:29:18;;;;;;;;;;;15.80;99.30;;;;;;2090542;28;1728;-53
2021/05/14 07:30:37;;;;;;;;;;;15.80;99.30;;;;;;2087671;28;1558;-53
2021/05/14 07:31:57;;;;;;;;;;;15.90;99.00;;;;;;2091901;28;1327;-51
2021/05/14 07:33:16;;;;;;;;;;;15.80;99.10;;;;;;2093007;28;1455;-55
2021/05/14 07:34:35;;;;;;;;;;;15.90;99.10;;;;;;2094860;28;1078;-52
2021/05/14 07:35:54;;;;;;;;;;;15.90;98.80;;;;;;2089625;28;1567;-55
2021/05/14 07:37:14;;;;;;;;;;;15.80;98.70;;;;;;2088870;28;1324;-50
2021/05/14 07:38:33;;;;;;;;;;;15.80;98.90;;;;;;2088648;28;1315;-55
2021/05/14 07:39:54;;;;;;;;;;;15.80;98.90;;;;;;2092651;28;1147;-51
2021/05/14 07:41:13;;;;;;;;;;;15.90;99.00;;;;;;2088630;28;1910;-52
2021/05/14 07:42:32;;;;;;;;;;;15.90;99.00;;;;;;2093669;28;1571;-53
2021/05/14 07:43:53;;;;;;;;;;;15.80;98.70;;;;;;2091065;28;1375;-54
2021/05/14 07:45:12;;;;;;;;;;;15.80;98.30;;;;;;2090793;28;1162;-50
2021/05/14 07:46:31;;;;;;;;;;;15.90;98.50;;;;;;2093125;28;1389;-54
2021/05/14 07:47:51;;;;;;;;;;;15.90;98.40;;;;;;2085111;28;1327;-50
2021/05/14 07:49:10;;;;;;;;;;;15.90;98.30;;;;;;2082832;28;1248;-50
2021/05/14 07:50:29;;;;;;;;;;;15.90;98.60;;;;;;2089408;28;1301;-53
2021/05/14 07:51:48;;;;;;;;;;;15.80;98.40;;;;;;2093736;28;1241;-54
2021/05/14 07:53:08;;;;;;;;;;;15.80;98.40;;;;;;2089785;28;1765;-52
2021/05/14 07:54:27;;;;;;;;;;;15.90;98.30;;;;;;2093058;28;1198;-52
2021/05/14 07:55:46;;;;;;;;;;;15.90;98.40;;;;;;2084246;28;1125;-53
2021/05/14 07:57:06;;;;;;;;;;;15.90;98.60;;;;;;2087758;28;1583;-52